Time;durP1;ratioP1;P1;durP2;ratioP2;P2;SDS_P1;SDS_P2;PMS_P1;PMS_P2;Temp;Humidity;BMP_temperature;BMP_pressure;BME280_temperature;BME280_humidity;BME280_pressure;Samples;Min_cycle;Max_cycle;Signal;HPM_P1;HPM_P2
2022/01/22 09:35:37;;;;;;;;;;;;;;;1.41;63.54;98402.81;4250017;27;10269;-70
2022/01/22 09:37:39;;;;;;;;;;;;;;;1.65;62.60;98406.47;4249386;27;5625;-69
2022/01/22 09:39:40;;;;;;;;;;;;;;;1.68;62.31;98401.03;4242950;27;5080;-71
2022/01/22 09:41:42;;;;;;;;;;;;;;;1.78;62.13;98406.50;4226666;28;7763;-70
2022/01/22 09:44:05;;;;;;;;;;;;;;;1.61;62.89;98415.41;4235121;27;5664;-70
2022/01/22 09:46:11;;;;;;;;;;;;;;;1.70;62.63;98417.44;4249708;22;6079;-72
2022/01/22 09:48:14;;;;;;;;;;;;;;;1.92;62.06;98418.66;4147758;28;5596;-72
2022/01/22 09:50:18;;;;;;;;;;;;;;;1.90;62.00;98418.75;4148565;28;5606;-72
2022/01/22 09:52:22;;;;;;;;;;;;;;;1.83;62.29;98424.47;4149101;28;5749;-71
2022/01/22 09:54:24;;;;;;;;;;;;;;;1.88;62.07;98422.41;4148575;28;5948;-71
2022/01/22 09:56:27;;;;;;;;;;;;;;;1.86;61.94;98422.50;4145679;28;5911;-70
2022/01/22 09:58:30;;;;;;;;;;;;;;;2.02;61.46;98414.50;4148863;28;5786;-71
2022/01/22 10:00:32;;;;;;;;;;;;;;;1.99;61.93;98422.53;4146243;28;6292;-71
2022/01/22 10:02:48;;;;;;;;;;;;;;;2.02;61.78;98419.72;4147477;28;6426;-71
2022/01/22 10:04:55;;;;;;;;;;;;;;;2.03;61.69;98417.00;4138246;28;5585;-72
2022/01/22 10:06:57;;;;;;;;;;;;;;;2.08;61.35;98414.13;4136613;28;5622;-70
2022/01/22 10:09:14;;;;;;;;;;;;;;;2.17;61.34;98413.50;4133684;28;5767;-71
2022/01/22 10:11:23;;;;;;;;;;;;;;;2.14;61.32;98413.69;4147740;28;5762;-71
2022/01/22 10:13:36;;;;;;;;;;;;;;;2.06;61.61;98410.78;4146647;28;5624;-70
2022/01/22 10:16:09;;;;;;;;;;;;;;;2.06;61.45;98415.16;4143805;28;5758;-73
2022/01/22 10:18:19;;;;;;;;;;;;;;;2.12;61.33;98414.75;4145471;28;5766;-72
2022/01/22 10:20:59;;;;;;;;;;;;;;;2.25;61.08;98416.44;4146173;28;5928;-72
2022/01/22 10:23:27;;;;;;;;;;;;;;;2.20;61.34;98408.09;4065708;29;5980;-70
2022/01/22 10:25:41;;;;;;;;;;;;;;;2.11;61.44;98406.06;4065101;29;5997;-74
2022/01/22 10:27:47;;;;;;;;;;;;;;;2.25;61.40;98403.38;4061154;29;5979;-74
2022/01/22 10:29:54;;;;;;;;;;;;;;;2.32;61.31;98409.03;4064619;29;5961;-74
2022/01/22 10:32:01;;;;;;;;;;;;;;;2.26;61.67;98405.06;4045894;29;5133;-74
2022/01/22 10:34:09;;;;;;;;;;;;;;;2.31;61.52;98402.16;4060159;29;7862;-75
2022/01/22 10:36:18;;;;;;;;;;;;;;;2.34;61.90;98405.38;4020998;29;6129;-74
2022/01/22 10:38:21;;;;;;;;;;;;;;;2.42;61.37;98407.50;4043219;29;5976;-74
2022/01/22 10:40:36;;;;;;;;;;;;;;;2.09;62.14;98394.91;4036512;29;6021;-73
2022/01/22 10:42:37;;;;;;;;;;;;;;;2.28;62.29;98395.38;4052598;29;5997;-75
2022/01/22 10:44:47;;;;;;;;;;;;;;;2.24;62.71;98404.31;4052151;29;6055;-75
2022/01/22 10:46:52;;;;;;;;;;;;;;;2.32;62.94;98402.06;4055474;29;5996;-75
2022/01/22 10:49:08;;;;;;;;;;;;;;;2.43;63.80;98388.28;4052343;29;6028;-74
2022/01/22 10:51:12;;;;;;;;;;;;;;;2.40;63.82;98382.44;4064591;29;6015;-73
2022/01/22 10:53:14;;;;;;;;;;;;;;;2.36;65.09;98394.00;4050444;29;5979;-73
2022/01/22 10:55:16;;;;;;;;;;;;;;;2.35;64.13;98385.34;4051943;29;5997;-74
2022/01/22 10:57:20;;;;;;;;;;;;;;;2.45;63.33;98391.63;4050002;29;6021;-74
2022/01/22 10:59:22;;;;;;;;;;;;;;;2.55;63.92;98381.41;4070067;29;6748;-74
2022/01/22 11:01:27;;;;;;;;;;;;;;;2.52;63.92;98384.22;4122225;28;5806;-74
2022/01/22 11:03:30;;;;;;;;;;;;;;;2.64;63.06;98386.00;4133540;28;5709;-73
2022/01/22 11:05:37;;;;;;;;;;;;;;;2.59;63.11;98388.06;4136194;28;5317;-72
2022/01/22 11:07:39;;;;;;;;;;;;;;;2.72;62.78;98378.47;4132171;28;8026;-74
2022/01/22 11:09:41;;;;;;;;;;;;;;;2.79;62.41;98374.50;4134577;28;6960;-72
2022/01/22 11:11:44;;;;;;;;;;;;;;;2.85;62.01;98368.03;4133538;28;5706;-73
2022/01/22 11:13:46;;;;;;;;;;;;;;;2.82;62.09;98371.66;4117127;28;5829;-73
2022/01/22 11:15:50;;;;;;;;;;;;;;;2.78;61.85;98378.03;4117491;28;5929;-75
2022/01/22 11:17:54;;;;;;;;;;;;;;;2.74;61.73;98373.97;4123036;28;5690;-73
2022/01/22 11:19:58;;;;;;;;;;;;;;;2.65;61.74;98361.56;4135077;28;5694;-74
2022/01/22 11:22:04;;;;;;;;;;;;;;;2.79;61.49;98357.97;4135363;28;5725;-74
2022/01/22 11:24:08;;;;;;;;;;;;;;;2.91;61.49;98355.34;4136908;28;5921;-74
2022/01/22 11:26:12;;;;;;;;;;;;;;;3.00;60.56;98359.09;4119254;28;7397;-74
2022/01/22 11:28:14;;;;;;;;;;;;;;;2.90;61.08;98363.31;4137605;28;5624;-75
2022/01/22 11:30:18;;;;;;;;;;;;;;;3.05;60.27;98348.31;4137878;28;5604;-75
2022/01/22 11:32:26;;;;;;;;;;;;;;;3.20;60.54;98358.53;4120367;28;5706;-75
2022/01/22 11:34:31;;;;;;;;;;;;;;;3.25;60.50;98349.53;4138043;28;5627;-74
2022/01/22 11:36:53;;;;;;;;;;;;;;;3.19;60.68;98356.03;4104489;28;5728;-73
2022/01/22 11:39:01;;;;;;;;;;;;;;;3.27;60.17;98353.69;4135579;28;5608;-74
2022/01/22 11:41:16;;;;;;;;;;;;;;;3.25;59.85;98355.59;4120575;28;5706;-73
2022/01/22 11:43:23;;;;;;;;;;;;;;;3.19;60.06;98342.97;4118183;28;5615;-74
2022/01/22 11:45:26;;;;;;;;;;;;;;;3.18;60.45;98338.69;4136919;28;5591;-73
2022/01/22 11:47:28;;;;;;;;;;;;;;;3.18;59.92;98333.47;4137037;28;5795;-73
2022/01/22 11:49:32;;;;;;;;;;;;;;;3.16;59.87;98336.16;4139882;28;5595;-73
2022/01/22 11:51:33;;;;;;;;;;;;;;;3.19;59.93;98335.13;4125926;28;5705;-73
2022/01/22 11:53:37;;;;;;;;;;;;;;;3.19;59.44;98337.75;4124116;28;5619;-73
2022/01/22 11:55:39;;;;;;;;;;;;;;;3.19;59.45;98341.19;4144070;28;5670;-72
2022/01/22 11:57:43;;;;;;;;;;;;;;;3.18;59.39;98336.91;4144218;28;5607;-73
2022/01/22 15:03:18;;;;;;;;;;;;;;;4.51;60.18;98243.22;4234915;27;10341;-64
2022/01/22 15:05:27;;;;;;;;;;;;;;;4.63;60.31;98244.03;4211620;27;5665;-65
2022/01/22 15:07:30;;;;;;;;;;;;;;;4.65;60.22;98239.53;4228031;27;5826;-66
2022/01/22 15:09:33;;;;;;;;;;;;;;;4.66;60.31;98239.41;4224091;28;5774;-66
2022/01/22 15:11:37;;;;;;;;;;;;;;;4.72;60.29;98234.63;4207042;28;5804;-66
2022/01/22 15:13:39;;;;;;;;;;;;;;;4.77;60.08;98243.81;4224535;27;5695;-66
2022/01/22 15:15:45;;;;;;;;;;;;;;;4.78;60.24;98244.63;4205907;28;5943;-66
2022/01/22 15:19:53;;;;;;;;;;;;;;;4.75;60.35;98257.97;4225315;28;5747;-66
2022/01/22 15:21:57;;;;;;;;;;;;;;;4.84;60.07;98249.38;4207391;28;5796;-67
2022/01/22 15:23:59;;;;;;;;;;;;;;;4.81;60.30;98249.63;4226294;27;5763;-67
2022/01/22 15:26:04;;;;;;;;;;;;;;;4.87;60.39;98260.47;4214505;28;5835;-68
2022/01/22 15:28:06;;;;;;;;;;;;;;;4.94;59.23;98255.56;4225984;28;5706;-69
2022/01/22 15:30:18;;;;;;;;;;;;;;;4.96;59.85;98256.25;4211942;28;5778;-68
2022/01/22 15:35:01;;;;;;;;;;;;;;;4.94;59.23;98256.38;4187540;28;5711;-68
2022/01/22 15:37:07;;;;;;;;;;;;;;;4.99;59.23;98252.59;4209923;28;5694;-68
2022/01/22 15:39:08;;;;;;;;;;;;;;;5.00;58.74;98255.09;4210769;28;5838;-68
2022/01/22 15:41:10;;;;;;;;;;;;;;;5.05;58.47;98255.53;4228947;28;5097;-68
2022/01/22 15:43:13;;;;;;;;;;;;;;;5.04;58.12;98256.50;4213889;22;5749;-69
2022/01/22 15:45:15;;;;;;;;;;;;;;;5.06;57.97;98261.59;4193193;28;5826;-68
2022/01/22 15:47:17;;;;;;;;;;;;;;;5.09;57.41;98254.31;4196764;28;5885;-67
2022/01/22 15:49:21;;;;;;;;;;;;;;;5.13;57.26;98253.13;4195792;28;5942;-68
2022/01/22 15:51:22;;;;;;;;;;;;;;;5.09;58.22;98254.31;4208893;28;5777;-67
2022/01/22 15:53:24;;;;;;;;;;;;;;;5.12;58.64;98258.50;4209097;28;6501;-68
2022/01/22 15:55:26;;;;;;;;;;;;;;;5.04;58.98;98261.72;4204313;28;5742;-67
2022/01/22 15:57:30;;;;;;;;;;;;;;;5.10;58.99;98261.25;4191868;28;5767;-67
2022/01/22 15:59:32;;;;;;;;;;;;;;;5.04;58.75;98266.97;4192164;28;5834;-67
2022/01/22 16:01:36;;;;;;;;;;;;;;;5.11;58.78;98264.72;4208590;28;5845;-67
2022/01/22 16:03:43;;;;;;;;;;;;;;;5.11;57.11;98269.94;4200071;28;5745;-67
2022/01/22 16:05:45;;;;;;;;;;;;;;;5.08;57.94;98273.63;4201459;28;5726;-66
2022/01/22 16:07:47;;;;;;;;;;;;;;;5.06;57.36;98265.06;4189247;28;5754;-66
2022/01/22 16:10:09;;;;;;;;;;;;;;;5.06;57.04;98267.69;4201627;28;5757;-66
2022/01/22 16:12:11;;;;;;;;;;;;;;;5.01;57.15;98269.84;4193738;28;5816;-66
2022/01/22 16:14:21;;;;;;;;;;;;;;;5.04;57.28;98266.97;4198846;28;5774;-66
2022/01/22 16:16:23;;;;;;;;;;;;;;;4.98;57.27;98275.31;4180750;28;5899;-66
2022/01/22 16:18:25;;;;;;;;;;;;;;;4.99;57.51;98278.78;4205988;28;5717;-68
2022/01/22 16:20:26;;;;;;;;;;;;;;;5.04;57.39;98277.47;4200310;28;5843;-67
2022/01/22 16:22:29;;;;;;;;;;;;;;;4.93;57.51;98277.47;4186228;28;5749;-67
2022/01/22 16:24:31;;;;;;;;;;;;;;;4.96;57.93;98274.59;4196075;28;5880;-67
2022/01/22 16:26:33;;;;;;;;;;;;;;;5.01;57.38;98282.97;4190168;28;5710;-66
2022/01/22 16:28:34;;;;;;;;;;;;;;;4.88;57.99;98272.63;4187163;28;5821;-65
2022/01/22 16:30:36;;;;;;;;;;;;;;;4.91;58.09;98276.78;4194077;28;5787;-67
2022/01/22 16:32:38;;;;;;;;;;;;;;;5.00;57.82;98281.28;4201238;28;5758;-66
2022/01/22 16:34:39;;;;;;;;;;;;;;;4.98;58.24;98277.94;4184562;28;5842;-66
2022/01/22 16:36:41;;;;;;;;;;;;;;;4.99;58.09;98286.66;4198302;28;6506;-65
2022/01/22 16:38:45;;;;;;;;;;;;;;;4.92;57.96;98283.69;4194614;28;5812;-66
2022/01/22 16:40:47;;;;;;;;;;;;;;;4.91;58.06;98277.59;4197160;28;5931;-66
2022/01/22 16:42:58;;;;;;;;;;;;;;;4.81;58.31;98283.69;4191567;28;5784;-66
2022/01/22 16:51:57;;;;;;;;;;;;;;;4.82;58.57;98277.50;4221838;22;5715;-66
2022/01/22 16:56:34;;;;;;;;;;;;;;;4.60;59.30;98286.19;4200613;28;5800;-66
2022/01/22 16:58:45;;;;;;;;;;;;;;;4.71;58.96;98290.59;4194918;28;5793;-64
2022/01/22 17:00:57;;;;;;;;;;;;;;;4.70;59.18;98292.38;4194035;28;5922;-64
2022/01/22 17:03:06;;;;;;;;;;;;;;;4.71;59.53;98291.44;4186481;28;5746;-64
2022/01/22 17:05:12;;;;;;;;;;;;;;;4.68;59.35;98295.13;4190026;28;6499;-64
2022/01/22 17:07:40;;;;;;;;;;;;;;;4.61;59.68;98296.56;4190482;28;5788;-64
2022/01/22 17:14:12;;;;;;;;;;;;;;;4.79;59.56;98298.69;4155747;28;5840;-64
2022/01/22 17:16:14;;;;;;;;;;;;;;;4.73;59.93;98294.75;4199364;28;5797;-66
2022/01/22 17:18:16;;;;;;;;;;;;;;;4.78;59.70;98297.03;4197881;28;5753;-65
2022/01/22 17:20:18;;;;;;;;;;;;;;;4.75;59.96;98297.25;4204239;28;5834;-68
2022/01/22 17:22:22;;;;;;;;;;;;;;;4.79;59.81;98298.69;4198682;28;5789;-70
2022/01/22 17:24:25;;;;;;;;;;;;;;;4.83;59.62;98297.50;4176641;28;5796;-70
2022/01/22 17:26:27;;;;;;;;;;;;;;;4.71;59.48;98298.47;4187215;28;5709;-70
2022/01/22 17:28:30;;;;;;;;;;;;;;;4.50;58.92;98293.94;4197103;28;6547;-70
2022/01/22 17:30:36;;;;;;;;;;;;;;;4.47;59.87;98309.06;4188800;28;5800;-69
2022/01/22 17:32:38;;;;;;;;;;;;;;;4.50;60.13;98304.41;4190469;28;5861;-70
2022/01/22 17:34:59;;;;;;;;;;;;;;;4.48;60.40;98301.06;4194597;28;5910;-70
2022/01/22 17:37:01;;;;;;;;;;;;;;;4.42;60.50;98300.69;4193797;28;5814;-70
2022/01/22 17:39:15;;;;;;;;;;;;;;;4.50;60.13;98306.19;4191338;28;5702;-71
2022/01/22 17:41:18;;;;;;;;;;;;;;;4.58;59.76;98312.50;4183718;28;5809;-71
2022/01/22 17:43:20;;;;;;;;;;;;;;;4.58;59.79;98307.28;4191124;28;5807;-71
2022/01/22 17:45:22;;;;;;;;;;;;;;;4.47;60.33;98309.06;4210046;28;5801;-70
2022/01/22 17:47:25;;;;;;;;;;;;;;;4.46;60.43;98310.84;4192226;28;5761;-70
2022/01/22 17:49:28;;;;;;;;;;;;;;;4.45;60.21;98310.97;4221543;22;5826;-70
2022/01/22 17:51:31;;;;;;;;;;;;;;;4.37;60.43;98309.75;4197388;28;5798;-70
2022/01/22 17:53:36;;;;;;;;;;;;;;;4.43;60.10;98312.88;4198263;28;5777;-70
2022/01/22 17:55:38;;;;;;;;;;;;;;;4.37;60.05;98307.13;4199276;28;5771;-70
2022/01/22 17:57:40;;;;;;;;;;;;;;;4.44;60.00;98310.13;4177469;28;5967;-70
2022/01/22 17:59:43;;;;;;;;;;;;;;;4.41;60.26;98315.59;4183605;28;5788;-73
2022/01/22 18:01:48;;;;;;;;;;;;;;;4.41;60.13;98312.97;4168883;28;5753;-71
2022/01/22 18:03:53;;;;;;;;;;;;;;;4.35;60.31;98316.06;4182722;28;5874;-71
2022/01/22 18:06:00;;;;;;;;;;;;;;;4.48;60.05;98316.78;4179870;28;5937;-72
2022/01/22 18:08:01;;;;;;;;;;;;;;;4.43;60.29;98318.94;4178021;28;5966;-72
2022/01/22 18:10:04;;;;;;;;;;;;;;;4.20;60.90;98322.47;4183071;28;5681;-69
2022/01/22 18:12:06;;;;;;;;;;;;;;;4.21;60.70;98319.75;4173169;28;6450;-66
2022/01/22 18:14:10;;;;;;;;;;;;;;;4.27;60.63;98326.28;4188112;28;5752;-69
2022/01/22 18:16:12;;;;;;;;;;;;;;;4.12;61.04;98320.44;4182954;28;5690;-71
2022/01/22 18:18:13;;;;;;;;;;;;;;;4.27;60.59;98324.50;4178877;28;7075;-68
2022/01/22 18:20:15;;;;;;;;;;;;;;;4.27;60.58;98326.28;4201034;28;5065;-73
2022/01/22 18:22:17;;;;;;;;;;;;;;;4.27;60.67;98328.91;4186446;28;5795;-70
2022/01/22 18:24:19;;;;;;;;;;;;;;;4.23;60.76;98330.09;4168397;28;5723;-70
2022/01/22 18:26:21;;;;;;;;;;;;;;;4.05;61.14;98329.69;4174601;28;5685;-71
2022/01/22 18:28:25;;;;;;;;;;;;;;;4.13;61.13;98318.63;4173791;28;5812;-70
2022/01/22 18:30:27;;;;;;;;;;;;;;;4.08;61.22;98325.06;4177108;28;5798;-71
2022/01/22 18:32:30;;;;;;;;;;;;;;;4.15;61.09;98325.41;4182500;28;5673;-68
2022/01/22 18:34:34;;;;;;;;;;;;;;;4.22;61.06;98321.41;4184613;28;5816;-71
2022/01/22 18:36:38;;;;;;;;;;;;;;;4.19;60.98;98326.88;4180458;28;5722;-69
2022/01/22 18:38:40;;;;;;;;;;;;;;;4.18;60.93;98325.19;4182641;28;5776;-71
2022/01/22 18:40:43;;;;;;;;;;;;;;;4.13;61.50;98331.72;4181213;28;5972;-70
2022/01/22 18:42:51;;;;;;;;;;;;;;;4.25;61.16;98326.41;4179125;28;5873;-71
2022/01/22 18:44:54;;;;;;;;;;;;;;;4.25;60.85;98333.41;4179265;28;5680;-71
2022/01/22 18:46:56;;;;;;;;;;;;;;;4.32;60.60;98337.25;4177897;28;5731;-70
2022/01/22 18:48:57;;;;;;;;;;;;;;;4.31;60.55;98335.59;4180259;28;6230;-71
2022/01/22 18:51:05;;;;;;;;;;;;;;;4.24;60.70;98345.69;4179168;28;5642;-72
2022/01/22 18:53:07;;;;;;;;;;;;;;;4.31;60.92;98346.06;4193968;28;5788;-71
2022/01/22 18:55:09;;;;;;;;;;;;;;;4.37;60.55;98346.41;4175590;28;5709;-69
2022/01/22 18:57:12;;;;;;;;;;;;;;;4.29;60.83;98342.69;4165671;28;5771;-68
2022/01/22 18:59:13;;;;;;;;;;;;;;;4.21;60.82;98351.16;4179179;28;5598;-70
2022/01/22 19:01:17;;;;;;;;;;;;;;;4.17;61.05;98354.09;4160335;28;6346;-70
2022/01/22 19:03:19;;;;;;;;;;;;;;;4.18;60.71;98350.53;4174946;28;5780;-69
2022/01/22 19:05:21;;;;;;;;;;;;;;;4.09;60.89;98350.28;4157599;28;5993;-69
2022/01/22 19:07:22;;;;;;;;;;;;;;;3.97;61.50;98350.38;4162913;28;5690;-69
2022/01/22 19:09:26;;;;;;;;;;;;;;;4.10;60.97;98353.75;4194108;28;5586;-69
2022/01/22 19:11:28;;;;;;;;;;;;;;;4.00;61.42;98361.44;4180607;28;5647;-70
2022/01/22 19:13:30;;;;;;;;;;;;;;;4.08;61.04;98359.09;4180096;28;5672;-69
2022/01/22 19:15:32;;;;;;;;;;;;;;;4.16;60.36;98360.28;4183571;28;5543;-69
2022/01/22 19:17:34;;;;;;;;;;;;;;;4.08;60.24;98361.72;4180527;28;5693;-69
2022/01/22 19:19:36;;;;;;;;;;;;;;;4.05;60.35;98346.22;4185492;28;5729;-70
2022/01/22 19:24:01;;;;;;;;;;;;;;;4.04;60.42;98359.41;4168838;28;5716;-70
2022/01/22 19:28:11;;;;;;;;;;;;;;;4.05;60.30;98361.06;4170055;28;6287;-68
2022/01/22 19:30:13;;;;;;;;;;;;;;;4.04;60.29;98373.34;4174693;28;5777;-68
2022/01/22 19:32:15;;;;;;;;;;;;;;;4.00;60.39;98363.22;4156554;28;5674;-68
2022/01/22 19:34:23;;;;;;;;;;;;;;;3.95;60.66;98375.78;4165291;28;5669;-68
2022/01/22 19:36:28;;;;;;;;;;;;;;;3.71;61.29;98378.41;4178460;28;5746;-69
2022/01/22 19:38:33;;;;;;;;;;;;;;;3.66;61.44;98375.31;4187371;28;5610;-69
2022/01/22 19:40:35;;;;;;;;;;;;;;;3.79;61.61;98376.09;4147516;28;5650;-69
2022/01/22 19:42:39;;;;;;;;;;;;;;;3.77;61.55;98367.53;4143083;28;5707;-70
2022/01/22 19:44:52;;;;;;;;;;;;;;;3.73;61.84;98376.53;4160860;28;5812;-69
2022/01/22 19:46:55;;;;;;;;;;;;;;;3.84;61.20;98373.97;4177767;28;5680;-69
2022/01/22 19:49:00;;;;;;;;;;;;;;;3.95;61.00;98381.84;4187488;28;5812;-70
2022/01/22 19:51:04;;;;;;;;;;;;;;;4.00;60.86;98376.31;4189370;28;5542;-72
2022/01/22 19:53:09;;;;;;;;;;;;;;;3.97;60.90;98379.97;4185201;28;5641;-71
2022/01/22 19:55:10;;;;;;;;;;;;;;;4.02;60.71;98372.63;4184402;28;5885;-71
2022/01/22 19:57:12;;;;;;;;;;;;;;;3.94;60.94;98374.13;4162528;28;5665;-71
2022/01/22 19:59:15;;;;;;;;;;;;;;;3.75;61.23;98375.50;4172559;28;5681;-72
2022/01/22 20:01:18;;;;;;;;;;;;;;;3.76;61.24;98374.53;4183472;28;5555;-71
2022/01/22 20:03:20;;;;;;;;;;;;;;;3.88;60.97;98383.28;4178813;28;5527;-69
2022/01/22 20:05:22;;;;;;;;;;;;;;;3.60;61.44;98380.97;4190351;28;5558;-71
2022/01/22 20:07:25;;;;;;;;;;;;;;;3.64;61.65;98379.84;4182757;28;5690;-70
2022/01/22 20:09:27;;;;;;;;;;;;;;;3.66;61.42;98377.94;4160984;28;5844;-70
2022/01/22 20:11:29;;;;;;;;;;;;;;;3.72;61.20;98378.31;4178348;28;5666;-69
2022/01/22 20:13:30;;;;;;;;;;;;;;;3.73;61.33;98381.75;4170575;28;5685;-65
2022/01/22 20:15:38;;;;;;;;;;;;;;;3.61;61.69;98378.25;4176225;28;5565;-67
2022/01/22 20:17:42;;;;;;;;;;;;;;;3.67;61.51;98382.22;4143986;28;5752;-69
2022/01/22 20:19:44;;;;;;;;;;;;;;;3.58;61.43;98380.25;4174145;28;5673;-64
2022/01/22 20:22:07;;;;;;;;;;;;;;;3.65;61.38;98384.13;4181769;28;5802;-67
2022/01/22 20:24:32;;;;;;;;;;;;;;;3.68;61.07;98379.47;4175644;28;5108;-68
2022/01/22 20:26:39;;;;;;;;;;;;;;;3.73;61.03;98379.13;4158853;28;5833;-68
2022/01/22 20:28:48;;;;;;;;;;;;;;;3.74;60.91;98378.22;4156933;28;5941;-68
2022/01/22 20:30:53;;;;;;;;;;;;;;;3.74;61.08;98383.44;4180399;28;6191;-70
2022/01/22 20:32:57;;;;;;;;;;;;;;;3.57;61.02;98383.81;4185329;28;5575;-69
2022/01/22 20:34:59;;;;;;;;;;;;;;;3.65;61.20;98369.25;4169198;28;5847;-68
2022/01/22 20:37:01;;;;;;;;;;;;;;;3.65;60.94;98377.09;4151318;28;5756;-68
2022/01/22 20:39:05;;;;;;;;;;;;;;;3.52;61.32;98378.09;4176379;28;6330;-68
2022/01/22 20:41:08;;;;;;;;;;;;;;;3.49;61.13;98377.34;4165975;28;5982;-68
2022/01/22 20:43:33;;;;;;;;;;;;;;;3.46;61.28;98377.59;4170695;28;5633;-69
2022/01/22 20:45:35;;;;;;;;;;;;;;;3.45;61.42;98375.91;4174741;28;5662;-69
2022/01/22 20:47:39;;;;;;;;;;;;;;;3.43;61.38;98377.81;4164335;28;5573;-65
2022/01/22 20:49:41;;;;;;;;;;;;;;;3.24;61.96;98374.00;4175256;28;6285;-66
2022/01/22 20:51:42;;;;;;;;;;;;;;;3.41;61.54;98371.88;4176353;28;5613;-66
2022/01/22 20:53:45;;;;;;;;;;;;;;;3.44;61.45;98366.41;4176307;28;5076;-65
2022/01/22 20:55:46;;;;;;;;;;;;;;;3.43;61.54;98375.19;4179070;28;5562;-65
2022/01/22 20:57:54;;;;;;;;;;;;;;;3.03;63.20;98368.50;4183256;28;5599;-67
2022/01/22 21:00:00;;;;;;;;;;;;;;;3.19;62.22;98369.09;4185742;28;5546;-67
2022/01/22 21:02:01;;;;;;;;;;;;;;;3.35;61.96;98367.06;4186743;28;5642;-65
2022/01/22 21:04:04;;;;;;;;;;;;;;;3.40;61.50;98370.19;4150369;28;5684;-66
2022/01/22 21:06:06;;;;;;;;;;;;;;;3.44;61.56;98366.41;4155053;28;5879;-64
2022/01/22 21:08:13;;;;;;;;;;;;;;;3.44;61.56;98363.78;4186025;28;6614;-64
2022/01/22 21:10:19;;;;;;;;;;;;;;;3.42;61.47;98363.06;4161587;28;5665;-64
2022/01/22 21:12:21;;;;;;;;;;;;;;;3.36;61.65;98363.50;4183757;28;5704;-63
2022/01/22 21:14:27;;;;;;;;;;;;;;;3.37;61.68;98361.72;4181859;28;5693;-67
2022/01/22 21:16:30;;;;;;;;;;;;;;;3.39;61.73;98365.88;4163271;28;5669;-65
2022/01/22 21:18:32;;;;;;;;;;;;;;;3.35;62.07;98356.59;4185002;28;5579;-66
2022/01/22 21:20:35;;;;;;;;;;;;;;;3.27;62.33;98358.91;4181813;28;5682;-66
2022/01/22 21:22:38;;;;;;;;;;;;;;;3.19;62.46;98361.25;4185506;28;6262;-65
2022/01/22 21:24:41;;;;;;;;;;;;;;;3.07;62.86;98354.28;4171498;28;5698;-66
2022/01/22 21:26:43;;;;;;;;;;;;;;;3.05;63.03;98351.75;4174738;28;5767;-67
2022/01/22 21:28:49;;;;;;;;;;;;;;;2.85;63.82;98355.78;4194341;28;6226;-65
2022/01/22 21:30:53;;;;;;;;;;;;;;;2.87;63.57;98347.84;4185323;28;5901;-66
2022/01/22 21:32:56;;;;;;;;;;;;;;;2.84;63.64;98351.50;4168252;28;5657;-65
2022/01/22 21:34:58;;;;;;;;;;;;;;;2.89;63.44;98348.56;4186236;28;5552;-66
2022/01/22 21:39:45;;;;;;;;;;;;;;;2.94;63.00;98356.91;4177558;28;5578;-66
2022/01/22 21:41:48;;;;;;;;;;;;;;;3.00;62.84;98361.72;4142544;28;5786;-64
2022/01/22 21:43:53;;;;;;;;;;;;;;;2.74;63.77;98355.69;4169463;28;6583;-63
2022/01/22 21:45:56;;;;;;;;;;;;;;;2.49;64.81;98360.91;4168066;28;5661;-64
2022/01/22 21:47:58;;;;;;;;;;;;;;;2.55;64.75;98355.28;4179637;28;5651;-67
2022/01/22 21:50:03;;;;;;;;;;;;;;;2.52;64.52;98358.94;4186285;28;5727;-67
2022/01/22 21:52:06;;;;;;;;;;;;;;;2.57;64.51;98356.00;4189091;28;5714;-68
2022/01/22 21:54:09;;;;;;;;;;;;;;;2.51;65.04;98364.28;4181412;28;5089;-68
2022/01/22 21:56:12;;;;;;;;;;;;;;;2.40;65.36;98356.34;4177702;28;7811;-68
2022/01/22 21:58:14;;;;;;;;;;;;;;;2.37;65.58;98359.97;4186124;28;7060;-68
2022/01/22 22:00:16;;;;;;;;;;;;;;;2.26;65.87;98363.31;4195851;28;5906;-68
2022/01/22 22:02:19;;;;;;;;;;;;;;;2.29;65.80;98370.94;4166278;28;5760;-67
2022/01/22 22:04:30;;;;;;;;;;;;;;;2.37;65.44;98357.34;4184529;28;5811;-67
2022/01/22 22:06:34;;;;;;;;;;;;;;;2.42;65.30;98364.91;4183999;28;5696;-68
2022/01/22 22:08:37;;;;;;;;;;;;;;;2.32;65.76;98360.28;4151880;28;5065;-68
2022/01/22 22:10:39;;;;;;;;;;;;;;;2.34;66.07;98363.63;4161971;28;5582;-67
2022/01/22 22:12:41;;;;;;;;;;;;;;;2.31;66.09;98361.22;4155792;28;5797;-67
2022/01/22 22:14:44;;;;;;;;;;;;;;;2.45;65.51;98359.47;4183461;28;5118;-68
2022/01/22 22:16:46;;;;;;;;;;;;;;;2.41;65.42;98364.06;4185902;28;5650;-67
2022/01/22 22:18:53;;;;;;;;;;;;;;;2.48;65.11;98374.91;4185511;28;5857;-66
2022/01/22 22:21:01;;;;;;;;;;;;;;;2.52;64.97;98364.19;4183884;28;5651;-67
2022/01/22 22:23:04;;;;;;;;;;;;;;;2.45;65.25;98367.28;4181561;28;5778;-66
2022/01/22 22:25:09;;;;;;;;;;;;;;;2.39;65.17;98363.34;4188743;28;5818;-67
2022/01/22 22:27:12;;;;;;;;;;;;;;;2.39;65.28;98363.34;4164183;28;5574;-66
2022/01/22 22:29:18;;;;;;;;;;;;;;;2.54;64.83;98364.91;4198736;22;5720;-66
2022/01/22 22:31:23;;;;;;;;;;;;;;;2.60;64.57;98367.09;4215578;28;5617;-66
2022/01/22 22:33:25;;;;;;;;;;;;;;;2.57;64.77;98366.47;4212889;28;6429;-66
2022/01/22 22:35:29;;;;;;;;;;;;;;;2.67;64.48;98372.72;4213522;28;5628;-65
2022/01/22 22:37:32;;;;;;;;;;;;;;;2.67;64.25;98370.13;4209540;28;5744;-65
2022/01/22 22:39:38;;;;;;;;;;;;;;;2.72;64.28;98373.25;4221366;28;5600;-66
2022/01/22 22:41:47;;;;;;;;;;;;;;;2.72;64.09;98368.03;4195584;28;5619;-64
